createdAt,value
2023-02-06T00:01:54.671Z,2.42
2023-02-06T00:04:22.560Z,2.53
2023-02-06T00:06:50.393Z,3.28
2023-02-06T00:09:18.229Z,1.67
2023-02-06T00:11:46.052Z,1.52
2023-02-06T00:14:13.868Z,2.47
2023-02-06T00:16:43.087Z,7.50
2023-02-06T00:19:10.932Z,3.08
2023-02-06T00:21:38.781Z,4.10
2023-02-06T00:24:07.178Z,2.85
2023-02-06T00:26:35.112Z,3.83
2023-02-06T00:29:02.972Z,3.08
2023-02-06T00:31:31.035Z,2.05
2023-02-06T00:34:00.872Z,2.38
2023-02-06T00:36:28.685Z,1.83
2023-02-06T00:38:56.560Z,2.88
2023-02-06T00:41:24.361Z,2.15
2023-02-06T00:43:52.391Z,2.30
2023-02-06T00:46:20.419Z,2.42
2023-02-06T00:48:48.273Z,1.98
2023-02-06T00:51:17.512Z,3.20
2023-02-06T00:53:45.395Z,1.73
2023-02-06T00:56:14.362Z,4.47
2023-02-06T00:58:42.231Z,5.00
2023-02-06T01:01:12.424Z,2.33
2023-02-06T01:03:40.345Z,3.50
2023-02-06T01:06:10.537Z,2.95
2023-02-06T01:08:39.771Z,2.20
2023-02-06T01:11:11.514Z,3.63
2023-02-06T01:13:39.390Z,3.20
2023-02-06T01:16:09.478Z,3.75
2023-02-06T01:18:37.463Z,2.65
2023-02-06T01:21:09.350Z,3.75
2023-02-06T01:23:39.400Z,6.15
2023-02-06T01:26:08.132Z,4.38
2023-02-06T01:28:37.738Z,5.13
2023-02-06T01:31:11.435Z,4.88
2023-02-06T01:33:39.516Z,4.80
2023-02-06T01:36:08.102Z,6.10
2023-02-06T01:38:36.030Z,6.20
2023-02-06T01:41:05.577Z,3.60
2023-02-06T01:43:36.157Z,4.65
2023-02-06T01:46:04.134Z,3.45
2023-02-06T01:48:37.584Z,4.95
2023-02-06T01:51:07.862Z,2.90
2023-02-06T01:53:35.932Z,3.33
2023-02-06T01:56:07.683Z,3.78
2023-02-06T01:58:38.504Z,5.95
2023-02-06T02:01:06.799Z,3.90
2023-02-06T02:03:37.230Z,5.70
2023-02-06T02:06:08.833Z,7.18
2023-02-06T02:08:39.336Z,6.90
2023-02-06T02:11:10.105Z,4.55
2023-02-06T02:13:38.977Z,4.18
2023-02-06T02:16:12.235Z,4.00
2023-02-06T02:18:52.028Z,5.68
2023-02-06T02:21:49.390Z,4.18
2023-02-06T02:24:23.306Z,4.60
2023-02-06T02:27:18.347Z,5.82
2023-02-06T02:30:11.716Z,2.10
2023-02-06T02:32:52.149Z,2.33
2023-02-06T02:35:32.894Z,3.75
2023-02-06T02:38:13.511Z,6.07
2023-02-06T02:40:47.394Z,3.45
2023-02-06T02:43:21.642Z,4.10
2023-02-06T02:45:51.827Z,5.68
2023-02-06T02:48:24.973Z,3.17
2023-02-06T02:50:54.880Z,6.10
2023-02-06T02:53:22.888Z,8.38
2023-02-06T02:55:50.975Z,3.83
2023-02-06T02:58:24.424Z,7.55
2023-02-06T03:00:56.381Z,4.50
2023-02-06T03:03:24.832Z,2.90
2023-02-06T03:06:07.589Z,5.88
2023-02-06T03:08:39.311Z,2.50
2023-02-06T03:11:13.354Z,4.72
2023-02-06T03:13:45.352Z,5.22
2023-02-06T03:16:15.928Z,5.60
2023-02-06T03:18:47.769Z,5.60
2023-02-06T03:21:20.421Z,6.90
2023-02-06T03:23:50.699Z,7.82
2023-02-06T03:26:21.889Z,5.13
2023-02-06T03:28:52.387Z,4.97
2023-02-06T03:31:23.063Z,5.20
2023-02-06T03:33:56.816Z,3.25
2023-02-06T03:36:26.111Z,6.63
2023-02-06T03:38:54.244Z,4.88
2023-02-06T03:41:25.083Z,6.40
2023-02-06T03:43:54.022Z,6.85
2023-02-06T03:46:22.362Z,6.28
2023-02-06T03:48:53.728Z,8.20
2023-02-06T03:51:26.162Z,4.85
2023-02-06T03:53:57.172Z,6.93
2023-02-06T03:56:26.808Z,5.28
2023-02-06T03:58:54.716Z,2.38
2023-02-06T04:01:23.489Z,4.38
2023-02-06T04:03:51.468Z,8.25
2023-02-06T04:06:19.500Z,4.75
2023-02-06T04:08:47.390Z,6.07
2023-02-06T04:11:16.647Z,6.93
2023-02-06T04:13:44.608Z,3.70
2023-02-06T04:16:12.501Z,6.40
2023-02-06T04:18:40.391Z,9.85
2023-02-06T04:21:08.700Z,5.18
2023-02-06T04:23:36.719Z,6.50
2023-02-06T04:26:04.863Z,4.45
2023-02-06T04:28:35.462Z,7.03
2023-02-06T04:31:04.377Z,4.07
2023-02-06T04:33:32.318Z,4.13
2023-02-06T04:36:00.181Z,5.32
2023-02-06T04:38:28.103Z,5.97
2023-02-06T04:40:56.007Z,7.45
2023-02-06T04:43:24.961Z,5.82
2023-02-06T04:45:54.187Z,4.68
2023-02-06T04:48:22.108Z,4.63
2023-02-06T04:50:50.367Z,5.60
2023-02-06T04:53:18.499Z,5.30
2023-02-06T04:55:46.378Z,5.07
2023-02-06T04:58:14.764Z,4.22
2023-02-06T05:00:42.567Z,4.60
2023-02-06T05:03:11.731Z,5.30
2023-02-06T05:05:39.559Z,5.05
2023-02-06T05:08:07.412Z,7.85
2023-02-06T05:10:35.218Z,4.13
2023-02-06T05:13:03.792Z,5.72
2023-02-06T05:15:31.608Z,5.43
2023-02-06T05:17:59.423Z,4.35
2023-02-06T05:20:29.035Z,6.88
2023-02-06T05:22:57.439Z,7.15
2023-02-06T05:25:25.720Z,5.80
2023-02-06T05:27:54.592Z,3.13
2023-02-06T05:30:22.646Z,2.97
2023-02-06T05:32:50.435Z,3.50
2023-02-06T05:35:18.481Z,3.80
2023-02-06T05:37:47.691Z,4.43
2023-02-06T05:40:19.041Z,4.28
2023-02-06T05:42:46.898Z,3.35
2023-02-06T05:45:14.767Z,3.20
2023-02-06T05:47:42.630Z,2.78
2023-02-06T05:50:10.853Z,3.80
2023-02-06T05:52:38.708Z,3.55
2023-02-06T05:55:09.001Z,4.43
2023-02-06T05:57:36.888Z,3.97
2023-02-06T06:00:06.501Z,3.47
2023-02-06T06:02:39.680Z,3.47
2023-02-06T06:05:08.639Z,3.03
2023-02-06T06:07:36.524Z,4.07
2023-02-06T06:10:04.728Z,4.55
2023-02-06T06:12:34.111Z,3.97
2023-02-06T06:15:02.020Z,4.50
2023-02-06T06:17:29.835Z,4.47
2023-02-06T06:19:57.750Z,4.68
2023-02-06T06:22:25.634Z,3.65
2023-02-06T06:24:53.466Z,4.15
2023-02-06T06:27:21.336Z,2.08
2023-02-06T06:29:50.548Z,4.38
2023-02-06T06:32:18.386Z,2.80
2023-02-06T06:34:46.208Z,5.78
2023-02-06T06:37:14.071Z,3.10
2023-02-06T06:39:41.926Z,2.80
2023-02-06T06:42:09.732Z,5.22
2023-02-06T06:44:37.587Z,4.85
2023-02-06T06:47:06.928Z,7.53
2023-02-06T06:49:34.750Z,5.47
2023-02-06T06:52:02.651Z,4.57
2023-02-06T06:54:30.735Z,4.07
2023-02-06T06:56:59.064Z,3.60
2023-02-06T06:59:27.118Z,4.05
2023-02-06T07:01:54.933Z,5.95
2023-02-06T07:04:24.148Z,3.03
2023-02-06T07:06:51.993Z,3.58
2023-02-06T07:09:19.819Z,4.22
2023-02-06T07:11:47.640Z,4.20
2023-02-06T07:14:15.507Z,6.75
2023-02-06T07:16:43.424Z,9.27
2023-02-06T07:19:11.400Z,5.32
2023-02-06T07:21:40.650Z,4.88
2023-02-06T07:24:08.858Z,5.55
2023-02-06T07:26:36.713Z,7.40
2023-02-06T07:29:04.599Z,4.70
2023-02-06T07:31:33.041Z,7.18
2023-02-06T07:34:02.423Z,4.32
2023-02-06T07:36:30.663Z,11.95
2023-02-06T07:39:00.051Z,8.90
2023-02-06T07:41:27.967Z,4.82
2023-02-06T07:43:55.942Z,6.10
2023-02-06T07:46:23.918Z,5.55
2023-02-06T07:48:51.850Z,4.80
2023-02-06T07:51:19.706Z,9.73
2023-02-06T07:53:47.643Z,4.55
2023-02-06T07:56:18.406Z,6.13
2023-02-06T07:58:47.320Z,4.40
2023-02-06T08:01:15.225Z,5.18
2023-02-06T08:03:43.176Z,2.85
2023-02-06T08:06:12.063Z,5.57
2023-02-06T08:08:39.998Z,4.25
2023-02-06T08:11:08.156Z,5.82
2023-02-06T08:13:37.546Z,8.00
2023-02-06T08:16:07.103Z,4.28
2023-02-06T08:18:35.356Z,9.20
2023-02-06T08:21:03.754Z,3.80
2023-02-06T08:23:31.649Z,10.05
2023-02-06T08:26:03.843Z,3.80
2023-02-06T08:28:32.445Z,5.95
2023-02-06T08:31:02.328Z,2.88
2023-02-06T08:33:30.660Z,4.57
2023-02-06T08:36:02.679Z,8.25
2023-02-06T08:38:30.660Z,3.05
2023-02-06T08:40:58.680Z,2.97
2023-02-06T08:43:26.730Z,3.35
2023-02-06T08:45:57.452Z,2.80
2023-02-06T08:48:27.194Z,3.40
2023-02-06T08:51:03.002Z,6.28
2023-02-06T08:53:31.069Z,7.43
2023-02-06T08:56:00.188Z,4.28
2023-02-06T08:58:28.236Z,2.58
2023-02-06T09:00:56.422Z,4.10
2023-02-06T09:03:27.135Z,6.10
2023-02-06T09:06:09.621Z,4.35
2023-02-06T09:08:38.489Z,3.38
2023-02-06T09:11:07.589Z,2.38
2023-02-06T09:13:35.929Z,5.47
2023-02-06T09:16:04.132Z,3.63
2023-02-06T09:18:33.455Z,6.45
2023-02-06T09:21:06.535Z,5.70
2023-02-06T09:23:34.607Z,8.00
2023-02-06T09:26:02.615Z,7.70
2023-02-06T09:28:30.572Z,8.00
2023-02-06T09:30:58.618Z,6.50
2023-02-06T09:33:26.699Z,6.88
2023-02-06T09:36:04.905Z,4.93
2023-02-06T09:38:33.317Z,6.28
2023-02-06T09:41:02.866Z,6.03
2023-02-06T09:43:31.447Z,5.07
2023-02-06T09:46:03.483Z,4.95
2023-02-06T09:48:33.847Z,7.10
2023-02-06T09:51:09.088Z,5.75
2023-02-06T09:53:44.046Z,4.75
2023-02-06T09:56:18.878Z,6.47
2023-02-06T09:58:52.211Z,7.32
2023-02-06T10:01:23.415Z,7.07
2023-02-06T10:04:05.263Z,8.52
2023-02-06T10:06:38.858Z,5.70
2023-02-06T10:09:11.268Z,3.92
2023-02-06T10:11:47.893Z,5.38
2023-02-06T10:14:22.471Z,4.75
2023-02-06T10:16:54.759Z,5.18
2023-02-06T10:19:25.518Z,7.03
2023-02-06T10:21:57.163Z,7.10
2023-02-06T10:24:33.930Z,3.85
2023-02-06T10:27:07.540Z,6.55
2023-02-06T10:29:36.358Z,5.95
2023-02-06T10:32:16.286Z,5.22
2023-02-06T10:35:02.306Z,10.73
2023-02-06T10:37:59.519Z,4.20
2023-02-06T10:40:32.471Z,4.88
2023-02-06T10:45:38.048Z,3.78
2023-02-06T10:48:13.201Z,4.40
2023-02-06T10:50:45.036Z,4.65
2023-02-06T10:53:18.990Z,6.72
2023-02-06T10:55:49.457Z,8.43
2023-02-06T10:58:21.935Z,6.00
2023-02-06T11:00:51.663Z,7.00
2023-02-06T11:03:21.395Z,4.82
2023-02-06T11:05:50.133Z,7.72
2023-02-06T11:08:22.265Z,7.68
2023-02-06T11:10:50.430Z,6.32
2023-02-06T11:13:25.159Z,6.30
2023-02-06T11:15:59.193Z,6.57
2023-02-06T11:18:31.064Z,5.30
2023-02-06T11:20:59.662Z,5.82
2023-02-06T11:23:30.081Z,8.90
2023-02-06T11:26:05.437Z,6.03
2023-02-06T11:28:34.354Z,8.80
2023-02-06T11:31:03.920Z,10.82
2023-02-06T11:33:39.737Z,5.68
2023-02-06T11:36:09.040Z,6.40
2023-02-06T11:38:38.420Z,5.03
2023-02-06T11:41:07.897Z,4.07
2023-02-06T11:43:50.523Z,3.47
2023-02-06T11:46:20.924Z,9.65
2023-02-06T11:48:50.323Z,5.82
2023-02-06T11:51:18.454Z,4.60
2023-02-06T11:53:58.852Z,4.32
2023-02-06T11:56:28.224Z,4.70
2023-02-06T11:59:05.974Z,7.63
2023-02-06T12:01:42.983Z,7.15
2023-02-06T12:04:23.701Z,7.22
2023-02-06T12:06:55.239Z,4.50
2023-02-06T12:09:24.523Z,5.45
2023-02-06T12:11:54.867Z,4.82
2023-02-06T12:14:26.154Z,6.78
2023-02-06T12:16:54.434Z,4.82
2023-02-06T12:19:26.183Z,5.97
2023-02-06T12:21:56.124Z,4.45
2023-02-06T12:24:29.673Z,6.18
2023-02-06T12:27:00.060Z,4.70
2023-02-06T12:29:33.177Z,6.00
2023-02-06T12:32:07.458Z,7.72
2023-02-06T12:34:50.602Z,5.90
2023-02-06T12:37:21.695Z,5.32
2023-02-06T12:39:52.968Z,5.78
2023-02-06T12:42:36.306Z,4.82
2023-02-06T12:45:09.078Z,10.85
2023-02-06T12:47:40.646Z,5.38
2023-02-06T12:50:15.875Z,5.90
2023-02-06T12:52:46.065Z,4.47
2023-02-06T12:55:21.138Z,6.47
2023-02-06T12:57:49.100Z,6.43
2023-02-06T13:00:50.358Z,6.22
2023-02-06T13:03:30.751Z,4.50
2023-02-06T13:06:04.492Z,6.15
2023-02-06T13:08:41.136Z,6.25
2023-02-06T13:11:17.593Z,8.70
2023-02-06T13:13:45.736Z,7.85
2023-02-06T13:16:13.784Z,4.55
2023-02-06T13:18:52.628Z,7.28
2023-02-06T13:21:28.530Z,4.57
2023-02-06T13:24:14.877Z,5.28
2023-02-06T13:27:12.965Z,7.20
2023-02-06T13:29:42.851Z,5.70
2023-02-06T13:32:45.405Z,5.65
2023-02-06T13:35:25.981Z,9.65
2023-02-06T13:38:14.967Z,6.32
2023-02-06T13:40:42.866Z,5.85
2023-02-06T13:43:17.232Z,6.20
2023-02-06T13:45:48.100Z,7.25
2023-02-06T13:48:35.243Z,9.05
2023-02-06T13:51:31.772Z,5.82
2023-02-06T13:54:44.374Z,5.07
2023-02-06T13:57:25.289Z,6.65
2023-02-06T13:59:56.440Z,5.63
2023-02-06T14:02:28.697Z,3.97
2023-02-06T14:04:57.068Z,8.15
2023-02-06T14:07:50.429Z,6.18
2023-02-06T14:11:00.136Z,6.63
2023-02-06T14:13:40.709Z,4.78
2023-02-06T14:16:20.955Z,4.88
2023-02-06T14:18:52.621Z,6.80
2023-02-06T14:21:28.910Z,5.15
2023-02-06T14:24:30.372Z,4.40
2023-02-06T14:27:07.975Z,4.97
2023-02-06T14:29:42.211Z,5.28
2023-02-06T14:32:23.216Z,4.35
2023-02-06T14:35:01.769Z,5.13
2023-02-06T14:37:42.539Z,10.27
2023-02-06T14:40:19.024Z,6.38
2023-02-06T14:42:47.303Z,4.07
2023-02-06T14:45:27.333Z,6.93
2023-02-06T14:47:58.955Z,6.00
2023-02-06T14:50:29.185Z,5.70
2023-02-06T14:52:58.497Z,4.85
2023-02-06T14:55:34.858Z,5.15
2023-02-06T14:58:04.092Z,12.73
2023-02-06T15:00:32.907Z,9.07
2023-02-06T15:03:08.076Z,11.95
2023-02-06T15:05:36.739Z,15.32
2023-02-06T15:08:06.504Z,32.92
2023-02-06T15:10:37.567Z,13.63
2023-02-06T15:13:05.721Z,14.23
2023-02-06T15:15:35.436Z,5.78
2023-02-06T15:18:07.298Z,6.40
2023-02-06T15:20:38.232Z,12.23
2023-02-06T15:23:17.690Z,5.30
2023-02-06T15:26:00.433Z,13.50
2023-02-06T15:28:31.222Z,8.13
2023-02-06T15:31:01.190Z,6.53
2023-02-06T15:33:32.356Z,6.70
2023-02-06T15:36:01.755Z,6.57
2023-02-06T15:38:32.995Z,10.30
2023-02-06T15:41:02.419Z,6.88
2023-02-06T15:43:30.582Z,7.22
2023-02-06T15:46:01.082Z,5.03
2023-02-06T15:48:35.540Z,7.35
2023-02-06T15:51:18.483Z,6.80
2023-02-06T15:53:48.562Z,8.57
2023-02-06T15:56:26.362Z,5.72
2023-02-06T15:58:59.665Z,5.75
2023-02-06T16:01:29.015Z,6.60
2023-02-06T16:04:02.851Z,6.13
2023-02-06T16:06:30.783Z,6.30
2023-02-06T16:09:00.733Z,8.68
2023-02-06T16:11:49.193Z,8.15
2023-02-06T16:14:21.855Z,11.45
2023-02-06T16:17:01.339Z,6.20
2023-02-06T16:19:48.628Z,5.72
2023-02-06T16:22:20.328Z,12.82
2023-02-06T16:24:48.354Z,5.95
2023-02-06T16:27:18.728Z,8.20
2023-02-06T16:29:49.515Z,6.60
2023-02-06T16:32:19.892Z,7.53
2023-02-06T16:34:49.532Z,8.27
2023-02-06T16:37:19.282Z,4.88
2023-02-06T16:39:47.420Z,3.85
2023-02-06T16:42:17.862Z,6.47
2023-02-06T16:44:49.686Z,8.05
2023-02-06T16:47:19.552Z,8.60
2023-02-06T16:49:49.692Z,4.22
2023-02-06T16:52:19.760Z,4.45
2023-02-06T16:54:47.779Z,6.35
2023-02-06T16:57:21.873Z,8.90
2023-02-06T16:59:50.140Z,7.38
2023-02-06T17:02:18.552Z,5.85
2023-02-06T17:04:46.485Z,8.30
2023-02-06T17:07:18.765Z,6.15
2023-02-06T17:09:47.421Z,7.50
2023-02-06T17:12:16.866Z,5.38
2023-02-06T17:14:44.858Z,8.50
2023-02-06T17:17:13.635Z,6.20
2023-02-06T17:19:42.259Z,7.95
2023-02-06T17:22:11.664Z,8.90
2023-02-06T17:24:41.485Z,9.80
2023-02-06T17:27:12.991Z,10.23
2023-02-06T17:29:40.899Z,6.70
2023-02-06T17:32:09.344Z,9.95
2023-02-06T17:34:37.930Z,7.57
2023-02-06T17:37:08.100Z,5.57
2023-02-06T17:39:36.357Z,7.05
2023-02-06T17:42:05.653Z,9.68
2023-02-06T17:44:33.527Z,7.78
2023-02-06T17:47:01.431Z,9.60
2023-02-06T17:49:29.303Z,10.77
2023-02-06T17:51:57.190Z,14.68
2023-02-06T17:54:25.079Z,12.18
2023-02-06T17:56:52.879Z,12.80
2023-02-06T17:59:22.230Z,8.40
2023-02-06T18:01:50.133Z,8.02
2023-02-06T18:04:20.303Z,8.30
2023-02-06T18:06:48.306Z,11.75
2023-02-06T18:09:16.213Z,10.75
2023-02-06T18:11:44.205Z,10.02
2023-02-06T18:14:12.076Z,8.30
2023-02-06T18:16:42.904Z,9.05
2023-02-06T18:19:11.492Z,10.13
2023-02-06T18:21:39.376Z,8.98
2023-02-06T18:24:08.148Z,15.10
2023-02-06T18:26:36.020Z,11.07
2023-02-06T18:29:05.216Z,9.90
2023-02-06T18:31:34.337Z,10.73
2023-02-06T18:34:07.756Z,7.47
2023-02-06T18:36:36.018Z,12.75
2023-02-06T18:39:04.211Z,9.10
2023-02-06T18:41:49.477Z,9.50
2023-02-06T18:44:17.447Z,12.57
2023-02-06T18:46:45.369Z,15.73
2023-02-06T18:49:15.859Z,10.63
2023-02-06T18:51:43.812Z,17.48
2023-02-06T18:54:11.764Z,16.42
2023-02-06T18:56:40.052Z,17.45
2023-02-06T18:59:07.910Z,20.65
2023-02-06T19:01:35.810Z,19.90
2023-02-06T19:04:04.097Z,19.67
2023-02-06T19:06:35.573Z,15.70
2023-02-06T19:09:07.019Z,16.60
2023-02-06T19:11:35.099Z,22.25
2023-02-06T19:14:03.316Z,20.13
2023-02-06T19:16:32.585Z,15.93
2023-02-06T19:19:01.620Z,17.30
2023-02-06T19:21:29.579Z,14.48
2023-02-06T19:24:00.412Z,20.27
2023-02-06T19:26:29.480Z,17.63
2023-02-06T19:28:58.937Z,17.70
2023-02-06T19:31:27.296Z,18.80
2023-02-06T19:33:57.209Z,20.20
2023-02-06T19:36:26.103Z,16.83
2023-02-06T19:38:56.503Z,21.30
2023-02-06T19:41:27.461Z,14.93
2023-02-06T19:43:56.674Z,15.43
2023-02-06T19:46:27.086Z,19.60
2023-02-06T19:48:55.391Z,13.77
2023-02-06T19:51:26.851Z,19.65
2023-02-06T19:53:56.127Z,18.73
2023-02-06T19:56:27.287Z,14.80
2023-02-06T19:58:55.948Z,19.30
2023-02-06T20:01:24.540Z,19.15
2023-02-06T20:03:53.065Z,20.60
2023-02-06T20:06:20.964Z,15.23
2023-02-06T20:08:49.068Z,18.50
2023-02-06T20:11:18.532Z,17.35
2023-02-06T20:13:48.087Z,11.95
2023-02-06T20:16:16.985Z,15.43
2023-02-06T20:18:45.274Z,17.08
2023-02-06T20:21:21.895Z,13.75
2023-02-06T20:23:50.816Z,12.75
2023-02-06T20:26:19.708Z,17.55
2023-02-06T20:28:49.309Z,16.92
2023-02-06T20:31:17.511Z,16.23
2023-02-06T20:33:45.490Z,18.23
2023-02-06T20:36:16.631Z,16.70
2023-02-06T20:38:48.676Z,14.32
2023-02-06T20:41:17.200Z,17.87
2023-02-06T20:43:47.830Z,12.50
2023-02-06T20:46:17.580Z,13.20
2023-02-06T20:48:46.651Z,11.32
2023-02-06T20:51:15.398Z,12.85
2023-02-06T20:53:43.234Z,14.43
2023-02-06T20:56:14.595Z,13.38
2023-02-06T20:58:42.581Z,14.60
2023-02-06T21:01:15.237Z,14.38
2023-02-06T21:03:45.197Z,10.98
2023-02-06T21:06:13.724Z,12.68
2023-02-06T21:08:41.928Z,15.23
2023-02-06T21:11:10.332Z,12.45
2023-02-06T21:13:40.486Z,11.82
2023-02-06T21:16:10.466Z,12.88
2023-02-06T21:18:42.500Z,13.85
2023-02-06T21:21:13.877Z,14.35
2023-02-06T21:23:43.231Z,14.35
2023-02-06T21:26:12.777Z,14.23
2023-02-06T21:28:41.724Z,12.20
2023-02-06T21:31:12.837Z,12.85
2023-02-06T21:33:40.745Z,13.23
2023-02-06T21:36:09.173Z,12.63
2023-02-06T21:38:39.107Z,12.70
2023-02-06T21:41:07.556Z,14.85
2023-02-06T21:43:36.198Z,12.02
2023-02-06T21:46:04.181Z,12.50
2023-02-06T21:48:32.693Z,15.50
2023-02-06T21:51:00.815Z,17.00
2023-02-06T21:53:28.756Z,12.18
2023-02-06T21:55:59.138Z,14.18
2023-02-06T21:58:27.066Z,11.05
2023-02-06T22:00:56.438Z,11.73
2023-02-06T22:03:24.260Z,13.50
2023-02-06T22:05:52.168Z,12.73
2023-02-06T22:08:20.100Z,13.52
2023-02-06T22:10:47.900Z,13.05
2023-02-06T22:13:17.164Z,12.13
2023-02-06T22:15:49.203Z,12.82
2023-02-06T22:18:17.031Z,10.90
2023-02-06T22:20:45.058Z,11.93
2023-02-06T22:23:12.899Z,14.93
2023-02-06T22:25:47.808Z,19.83
2023-02-06T22:28:17.017Z,16.23
2023-02-06T22:30:44.924Z,14.02
2023-02-06T22:33:12.753Z,14.60
2023-02-06T22:35:40.697Z,14.07
2023-02-06T22:38:09.108Z,14.95
2023-02-06T22:40:37.224Z,13.57
2023-02-06T22:43:05.117Z,16.75
2023-02-06T22:45:36.805Z,21.05
2023-02-06T22:48:05.160Z,17.38
2023-02-06T22:50:33.037Z,16.63
2023-02-06T22:53:18.702Z,20.55
2023-02-06T22:56:04.030Z,17.58
2023-02-06T22:58:31.970Z,19.45
2023-02-06T23:01:04.217Z,25.13
2023-02-06T23:03:32.194Z,16.83
2023-02-06T23:06:02.021Z,18.35
2023-02-06T23:08:30.204Z,17.67
2023-02-06T23:10:58.543Z,19.67
2023-02-06T23:13:26.634Z,18.92
2023-02-06T23:15:56.311Z,17.45
2023-02-06T23:18:26.288Z,18.70
2023-02-06T23:20:55.616Z,16.85
2023-02-06T23:23:23.951Z,13.90
2023-02-06T23:25:53.287Z,13.43
2023-02-06T23:28:21.451Z,13.57
2023-02-06T23:30:50.336Z,14.20
2023-02-06T23:33:19.107Z,18.65
2023-02-06T23:35:48.586Z,16.92
2023-02-06T23:38:16.508Z,17.33
2023-02-06T23:40:44.581Z,14.02
2023-02-06T23:43:12.418Z,11.52
2023-02-06T23:45:41.302Z,15.15
2023-02-06T23:48:09.680Z,15.73
2023-02-06T23:50:37.554Z,14.57
2023-02-06T23:53:06.824Z,17.17
2023-02-06T23:55:34.798Z,17.13
2023-02-06T23:58:02.759Z,11.80
